sensor_id;sensor_type;location;lat;lon;timestamp;pressure;altitude;pressure_sealevel;temperature;humidity
62402;BME280;48440;51.224;22.506;2023-03-14T00:00:10;97967.06;;;7.09;57.86
62402;BME280;48440;51.224;22.506;2023-03-14T00:02:37;97963.56;;;7.14;57.64
62402;BME280;48440;51.224;22.506;2023-03-14T00:05:03;97969.25;;;7.12;57.65
62402;BME280;48440;51.224;22.506;2023-03-14T00:07:36;97967.06;;;7.09;57.67
62402;BME280;48440;51.224;22.506;2023-03-14T00:10:04;97964.38;;;7.09;57.66
62402;BME280;48440;51.224;22.506;2023-03-14T00:12:31;97961.66;;;7.09;57.84
62402;BME280;48440;51.224;22.506;2023-03-14T00:14:57;97972.47;;;7.09;58.13
62402;BME280;48440;51.224;22.506;2023-03-14T00:17:22;97964.06;;;7.06;57.73
62402;BME280;48440;51.224;22.506;2023-03-14T00:19:48;97966.50;;;7.02;57.86
62402;BME280;48440;51.224;22.506;2023-03-14T00:22:17;97966.25;;;7.09;57.49
62402;BME280;48440;51.224;22.506;2023-03-14T00:24:43;97963.53;;;7.04;57.54
62402;BME280;48440;51.224;22.506;2023-03-14T00:27:08;97950.31;;;7.02;57.80
62402;BME280;48440;51.224;22.506;2023-03-14T00:29:33;97942.75;;;7.04;58.06
62402;BME280;48440;51.224;22.506;2023-03-14T00:31:59;97943.84;;;7.03;57.91
62402;BME280;48440;51.224;22.506;2023-03-14T00:34:28;97944.09;;;7.02;58.16
62402;BME280;48440;51.224;22.506;2023-03-14T00:36:54;97948.72;;;7.01;57.95
62402;BME280;48440;51.224;22.506;2023-03-14T00:39:19;97944.09;;;6.97;57.80
62402;BME280;48440;51.224;22.506;2023-03-14T00:41:45;97934.41;;;7.01;57.86
62402;BME280;48440;51.224;22.506;2023-03-14T00:44:10;97937.34;;;6.94;57.71
62402;BME280;48440;51.224;22.506;2023-03-14T00:46:36;97930.59;;;6.92;57.55
62402;BME280;48440;51.224;22.506;2023-03-14T00:49:01;97926.03;;;6.97;57.54
62402;BME280;48440;51.224;22.506;2023-03-14T00:51:27;97926.03;;;6.97;57.43
62402;BME280;48440;51.224;22.506;2023-03-14T00:53:52;97924.16;;;6.98;57.56
62402;BME280;48440;51.224;22.506;2023-03-14T00:56:18;97901.75;;;6.97;57.16
62402;BME280;48440;51.224;22.506;2023-03-14T00:58:43;97908.78;;;6.98;57.10
62402;BME280;48440;51.224;22.506;2023-03-14T01:01:12;97902.84;;;6.96;57.17
62402;BME280;48440;51.224;22.506;2023-03-14T01:03:38;97897.19;;;6.98;57.29
62402;BME280;48440;51.224;22.506;2023-03-14T01:06:15;97892.59;;;7.03;57.15
62402;BME280;48440;51.224;22.506;2023-03-14T01:08:41;97889.09;;;6.98;56.67
62402;BME280;48440;51.224;22.506;2023-03-14T01:11:12;97887.75;;;7.00;56.46
62402;BME280;48440;51.224;22.506;2023-03-14T01:13:38;97888.81;;;6.99;56.46
62402;BME280;48440;51.224;22.506;2023-03-14T01:16:06;97879.66;;;7.00;56.16
62402;BME280;48440;51.224;22.506;2023-03-14T01:18:32;97884.25;;;7.00;56.46
62402;BME280;48440;51.224;22.506;2023-03-14T01:20:58;97877.22;;;7.04;55.98
62402;BME280;48440;51.224;22.506;2023-03-14T01:23:24;97882.59;;;7.04;56.14
62402;BME280;48440;51.224;22.506;2023-03-14T01:25:49;97883.97;;;7.01;55.98
62402;BME280;48440;51.224;22.506;2023-03-14T01:28:15;97868.88;;;7.00;56.11
62402;BME280;48440;51.224;22.506;2023-03-14T01:30:41;97873.97;;;7.02;55.96
62402;BME280;48440;51.224;22.506;2023-03-14T01:33:06;97866.41;;;7.04;56.09
62402;BME280;48440;51.224;22.506;2023-03-14T01:35:32;97854.00;;;7.03;56.17
62402;BME280;48440;51.224;22.506;2023-03-14T01:37:57;97853.50;;;7.01;55.71
62402;BME280;48440;51.224;22.506;2023-03-14T01:40:23;97851.31;;;6.98;55.85
62402;BME280;48440;51.224;22.506;2023-03-14T01:42:56;97842.97;;;7.04;55.50
62402;BME280;48440;51.224;22.506;2023-03-14T01:48:26;97840.53;;;7.08;55.26
62402;BME280;48440;51.224;22.506;2023-03-14T01:50:54;97851.34;;;7.08;55.33
62402;BME280;48440;51.224;22.506;2023-03-14T01:53:20;97846.19;;;7.06;55.33
62402;BME280;48440;51.224;22.506;2023-03-14T01:55:48;97837.00;;;7.02;55.53
62402;BME280;48440;51.224;22.506;2023-03-14T01:58:17;97842.41;;;7.02;55.69
62402;BME280;48440;51.224;22.506;2023-03-14T02:00:43;97850.81;;;7.01;55.42
62402;BME280;48440;51.224;22.506;2023-03-14T02:03:12;97849.16;;;7.05;55.22
62402;BME280;48440;51.224;22.506;2023-03-14T02:05:40;97854.56;;;7.05;55.53
62402;BME280;48440;51.224;22.506;2023-03-14T02:08:09;97848.34;;;7.04;55.71
62402;BME280;48440;51.224;22.506;2023-03-14T02:10:39;97850.25;;;7.04;55.33
62402;BME280;48440;51.224;22.506;2023-03-14T02:13:06;97841.06;;;7.05;55.72
62402;BME280;48440;51.224;22.506;2023-03-14T02:15:32;97844.03;;;7.03;55.56
62402;BME280;48440;51.224;22.506;2023-03-14T02:17:59;97834.31;;;7.02;55.61
62402;BME280;48440;51.224;22.506;2023-03-14T02:21:04;97834.06;;;7.04;55.63
62402;BME280;48440;51.224;22.506;2023-03-14T02:23:35;97833.50;;;7.02;55.60
62402;BME280;48440;51.224;22.506;2023-03-14T02:26:19;97816.81;;;7.00;55.75
62402;BME280;48440;51.224;22.506;2023-03-14T02:28:49;97825.16;;;7.03;55.34
62402;BME280;48440;51.224;22.506;2023-03-14T02:31:19;97814.63;;;7.02;55.87
62402;BME280;48440;51.224;22.506;2023-03-14T02:33:46;97811.66;;;7.03;55.68
62402;BME280;48440;51.224;22.506;2023-03-14T02:36:13;97813.84;;;7.06;55.61
62402;BME280;48440;51.224;22.506;2023-03-14T02:38:47;97805.19;;;7.04;55.73
62402;BME280;48440;51.224;22.506;2023-03-14T02:41:15;97809.50;;;7.05;55.54
62402;BME280;48440;51.224;22.506;2023-03-14T02:43:41;97806.00;;;7.05;55.83
62402;BME280;48440;51.224;22.506;2023-03-14T02:46:14;97803.59;;;7.08;55.86
62402;BME280;48440;51.224;22.506;2023-03-14T02:48:49;97804.69;;;7.12;55.63
62402;BME280;48440;51.224;22.506;2023-03-14T02:51:16;97788.22;;;7.14;55.69
62402;BME280;48440;51.224;22.506;2023-03-14T02:53:42;97795.78;;;7.12;56.00
62402;BME280;48440;51.224;22.506;2023-03-14T02:56:08;97790.66;;;7.15;55.63
62402;BME280;48440;51.224;22.506;2023-03-14T02:58:34;97791.19;;;7.18;55.77
62402;BME280;48440;51.224;22.506;2023-03-14T03:01:00;97797.94;;;7.20;55.62
62402;BME280;48440;51.224;22.506;2023-03-14T03:03:26;97794.97;;;7.22;55.41
62402;BME280;48440;51.224;22.506;2023-03-14T03:05:54;97795.53;;;7.24;55.66
62402;BME280;48440;51.224;22.506;2023-03-14T03:08:21;97790.66;;;7.26;55.46
62402;BME280;48440;51.224;22.506;2023-03-14T03:10:47;97788.22;;;7.29;55.26
62402;BME280;48440;51.224;22.506;2023-03-14T03:13:16;97783.66;;;7.25;55.37
62402;BME280;48440;51.224;22.506;2023-03-14T03:15:42;97788.25;;;7.24;55.69
62402;BME280;48440;51.224;22.506;2023-03-14T03:18:08;97786.34;;;7.25;55.65
62402;BME280;48440;51.224;22.506;2023-03-14T03:20:34;97782.84;;;7.24;55.65
62402;BME280;48440;51.224;22.506;2023-03-14T03:23:00;97775.28;;;7.26;55.34
62402;BME280;48440;51.224;22.506;2023-03-14T03:25:25;97771.75;;;7.31;55.77
62402;BME280;48440;51.224;22.506;2023-03-14T03:27:51;97769.31;;;7.29;55.51
62402;BME280;48440;51.224;22.506;2023-03-14T03:30:17;97756.66;;;7.30;55.17
62402;BME280;48440;51.224;22.506;2023-03-14T03:32:43;97762.31;;;7.28;55.48
62402;BME280;48440;51.224;22.506;2023-03-14T03:35:09;97744.50;;;7.32;55.31
62402;BME280;48440;51.224;22.506;2023-03-14T03:37:35;97739.13;;;7.27;55.16
62402;BME280;48440;51.224;22.506;2023-03-14T03:40:01;97741.28;;;7.25;55.37
62402;BME280;48440;51.224;22.506;2023-03-14T03:42:27;97727.81;;;7.25;55.40
62402;BME280;48440;51.224;22.506;2023-03-14T03:44:52;97722.69;;;7.24;55.38
62402;BME280;48440;51.224;22.506;2023-03-14T03:47:18;97712.97;;;7.23;55.03
62402;BME280;48440;51.224;22.506;2023-03-14T03:49:43;97712.16;;;7.22;55.40
62402;BME280;48440;51.224;22.506;2023-03-14T03:52:11;97717.81;;;7.21;55.32
62402;BME280;48440;51.224;22.506;2023-03-14T03:54:37;97708.09;;;7.14;55.73
62402;BME280;48440;51.224;22.506;2023-03-14T03:57:03;97699.75;;;7.16;55.41
62402;BME280;48440;51.224;22.506;2023-03-14T03:59:28;97690.56;;;7.07;55.11
62402;BME280;48440;51.224;22.506;2023-03-14T04:01:54;97698.66;;;7.12;55.29
62402;BME280;48440;51.224;22.506;2023-03-14T04:04:19;97702.44;;;7.16;55.09
62402;BME280;48440;51.224;22.506;2023-03-14T04:06:45;97704.06;;;7.12;55.03
62402;BME280;48440;51.224;22.506;2023-03-14T04:09:11;97695.97;;;7.07;55.10
62402;BME280;48440;51.224;22.506;2023-03-14T04:11:36;97698.38;;;7.03;55.27
62402;BME280;48440;51.224;22.506;2023-03-14T04:14:03;97695.69;;;7.08;55.09
62402;BME280;48440;51.224;22.506;2023-03-14T04:16:29;97689.22;;;7.09;55.24
62402;BME280;48440;51.224;22.506;2023-03-14T04:18:56;97684.91;;;7.08;54.82
62402;BME280;48440;51.224;22.506;2023-03-14T04:21:22;97688.41;;;7.04;54.62
62402;BME280;48440;51.224;22.506;2023-03-14T04:23:48;97687.09;;;7.01;54.71
62402;BME280;48440;51.224;22.506;2023-03-14T04:26:14;97688.16;;;7.00;54.33
62402;BME280;48440;51.224;22.506;2023-03-14T04:28:39;97690.03;;;7.00;54.94
62402;BME280;48440;51.224;22.506;2023-03-14T04:31:13;97685.72;;;6.99;54.60
62402;BME280;48440;51.224;22.506;2023-03-14T04:33:39;97680.06;;;6.95;54.91
62402;BME280;48440;51.224;22.506;2023-03-14T04:36:06;97670.91;;;6.91;54.74
62402;BME280;48440;51.224;22.506;2023-03-14T04:38:31;97666.31;;;6.92;54.84
62402;BME280;48440;51.224;22.506;2023-03-14T04:40:57;97667.94;;;6.93;54.88
62402;BME280;48440;51.224;22.506;2023-03-14T04:43:23;97669.28;;;6.95;54.57
62402;BME280;48440;51.224;22.506;2023-03-14T04:45:54;97671.16;;;6.90;54.39
62402;BME280;48440;51.224;22.506;2023-03-14T04:48:20;97671.97;;;6.90;54.64
62402;BME280;48440;51.224;22.506;2023-03-14T04:50:47;97675.75;;;6.89;54.55
62402;BME280;48440;51.224;22.506;2023-03-14T04:53:16;97671.69;;;6.92;54.68
62402;BME280;48440;51.224;22.506;2023-03-14T04:55:42;97653.38;;;6.89;54.55
62402;BME280;48440;51.224;22.506;2023-03-14T04:58:12;97649.31;;;6.91;54.10
62402;BME280;48440;51.224;22.506;2023-03-14T05:00:37;97648.50;;;6.96;54.09
62402;BME280;48440;51.224;22.506;2023-03-14T05:03:03;97650.13;;;6.97;53.75
62402;BME280;48440;51.224;22.506;2023-03-14T05:05:28;97645.00;;;7.00;53.52
62402;BME280;48440;51.224;22.506;2023-03-14T05:07:54;97645.81;;;7.01;53.71
62402;BME280;48440;51.224;22.506;2023-03-14T05:10:19;97640.94;;;7.08;53.18
62402;BME280;48440;51.224;22.506;2023-03-14T05:12:44;97634.72;;;7.07;53.51
62402;BME280;48440;51.224;22.506;2023-03-14T05:15:10;97636.88;;;7.10;53.16
62402;BME280;48440;51.224;22.506;2023-03-14T05:17:35;97627.97;;;7.10;52.89
62402;BME280;48440;51.224;22.506;2023-03-14T05:20:01;97636.88;;;7.10;53.03
62402;BME280;48440;51.224;22.506;2023-03-14T05:22:32;97636.06;;;7.10;52.95
62402;BME280;48440;51.224;22.506;2023-03-14T05:24:58;97640.66;;;7.09;52.64
62402;BME280;48440;51.224;22.506;2023-03-14T05:27:24;97627.72;;;7.11;53.00
62402;BME280;48440;51.224;22.506;2023-03-14T05:29:49;97623.41;;;7.05;53.07
62402;BME280;48440;51.224;22.506;2023-03-14T05:32:15;97615.56;;;7.14;52.96
62402;BME280;48440;51.224;22.506;2023-03-14T05:34:40;97614.75;;;7.13;52.71
62402;BME280;48440;51.224;22.506;2023-03-14T05:37:05;97611.53;;;7.17;52.65
62402;BME280;48440;51.224;22.506;2023-03-14T05:39:32;97610.97;;;7.25;52.43
62402;BME280;48440;51.224;22.506;2023-03-14T05:41:57;97602.03;;;7.29;52.19
62402;BME280;48440;51.224;22.506;2023-03-14T05:44:23;97600.69;;;7.32;52.07
62402;BME280;48440;51.224;22.506;2023-03-14T05:46:49;97600.94;;;7.35;51.86
62402;BME280;48440;51.224;22.506;2023-03-14T05:49:14;97599.84;;;7.41;51.41
62402;BME280;48440;51.224;22.506;2023-03-14T05:51:40;97599.03;;;7.46;51.06
62402;BME280;48440;51.224;22.506;2023-03-14T05:54:05;97607.38;;;7.49;51.21
62402;BME280;48440;51.224;22.506;2023-03-14T05:56:32;97608.44;;;7.54;51.17
62402;BME280;48440;51.224;22.506;2023-03-14T05:58:58;97601.44;;;7.53;51.34
62402;BME280;48440;51.224;22.506;2023-03-14T06:01:24;97591.44;;;7.53;50.81
62402;BME280;48440;51.224;22.506;2023-03-14T06:03:49;97597.88;;;7.57;50.58
62402;BME280;48440;51.224;22.506;2023-03-14T06:06:14;97592.22;;;7.59;51.09
62402;BME280;48440;51.224;22.506;2023-03-14T06:08:41;97597.06;;;7.62;50.93
62402;BME280;48440;51.224;22.506;2023-03-14T06:11:07;97589.47;;;7.69;50.59
62402;BME280;48440;51.224;22.506;2023-03-14T06:13:32;97589.47;;;7.69;50.35
62402;BME280;48440;51.224;22.506;2023-03-14T06:15:58;97596.22;;;7.76;50.23
62402;BME280;48440;51.224;22.506;2023-03-14T06:18:23;97589.94;;;7.81;49.74
62402;BME280;48440;51.224;22.506;2023-03-14T06:20:53;97584.28;;;7.82;49.77
62402;BME280;48440;51.224;22.506;2023-03-14T06:23:19;97594.78;;;7.89;49.56
62402;BME280;48440;51.224;22.506;2023-03-14T06:25:44;97590.94;;;8.00;49.20
62402;BME280;48440;51.224;22.506;2023-03-14T06:28:10;97597.06;;;8.11;49.14
62402;BME280;48440;51.224;22.506;2023-03-14T06:30:35;97611.38;;;8.16;48.87
62402;BME280;48440;51.224;22.506;2023-03-14T06:33:01;97598.38;;;8.18;48.61
62402;BME280;48440;51.224;22.506;2023-03-14T06:35:26;97595.91;;;8.27;48.72
62402;BME280;48440;51.224;22.506;2023-03-14T06:37:52;97593.97;;;8.38;48.58
62402;BME280;48440;51.224;22.506;2023-03-14T06:40:17;97589.50;;;8.57;48.35
62402;BME280;48440;51.224;22.506;2023-03-14T06:42:44;97577.47;;;9.02;47.62
62402;BME280;48440;51.224;22.506;2023-03-14T06:45:10;97570.22;;;9.22;46.75
62402;BME280;48440;51.224;22.506;2023-03-14T06:47:35;97561.75;;;9.52;45.85
62402;BME280;48440;51.224;22.506;2023-03-14T06:50:01;97555.34;;;9.85;45.63
62402;BME280;48440;51.224;22.506;2023-03-14T06:52:26;97551.34;;;10.20;44.71
62402;BME280;48440;51.224;22.506;2023-03-14T06:54:52;97527.09;;;10.62;43.27
62402;BME280;48440;51.224;22.506;2023-03-14T06:57:17;97533.34;;;10.62;43.28
62402;BME280;48440;51.224;22.506;2023-03-14T06:59:43;97521.91;;;10.93;42.38
62402;BME280;48440;51.224;22.506;2023-03-14T07:02:10;97529.31;;;10.73;42.59
62402;BME280;48440;51.224;22.506;2023-03-14T07:04:36;97521.19;;;10.73;43.04
62402;BME280;48440;51.224;22.506;2023-03-14T07:07:01;97526.66;;;10.87;43.23
62402;BME280;48440;51.224;22.506;2023-03-14T07:09:27;97523.97;;;11.14;42.11
62402;BME280;48440;51.224;22.506;2023-03-14T07:11:53;97528.47;;;11.60;41.39
62402;BME280;48440;51.224;22.506;2023-03-14T07:14:18;97528.28;;;12.20;40.47
62402;BME280;48440;51.224;22.506;2023-03-14T07:16:43;97515.16;;;12.98;39.01
62402;BME280;48440;51.224;22.506;2023-03-14T07:19:10;97514.06;;;13.38;38.71
62402;BME280;48440;51.224;22.506;2023-03-14T07:21:36;97507.28;;;13.84;37.72
62402;BME280;48440;51.224;22.506;2023-03-14T07:24:01;97498.47;;;14.13;36.98
62402;BME280;48440;51.224;22.506;2023-03-14T07:26:27;97485.94;;;14.38;36.48
62402;BME280;48440;51.224;22.506;2023-03-14T07:28:52;97495.63;;;14.99;36.03
62402;BME280;48440;51.224;22.506;2023-03-14T07:31:18;97495.25;;;15.09;35.91
62402;BME280;48440;51.224;22.506;2023-03-14T07:33:43;97489.25;;;14.86;35.96
62402;BME280;48440;51.224;22.506;2023-03-14T07:36:11;97476.66;;;14.47;36.95
62402;BME280;48440;51.224;22.506;2023-03-14T07:38:37;97479.03;;;14.32;37.18
62402;BME280;48440;51.224;22.506;2023-03-14T07:41:04;97490.59;;;14.72;36.66
62402;BME280;48440;51.224;22.506;2023-03-14T07:43:30;97476.81;;;15.06;36.21
62402;BME280;48440;51.224;22.506;2023-03-14T07:45:56;97481.59;;;15.18;35.88
62402;BME280;48440;51.224;22.506;2023-03-14T07:48:21;97479.50;;;14.77;36.60
62402;BME280;48440;51.224;22.506;2023-03-14T07:50:54;97485.66;;;14.48;37.55
62402;BME280;48440;51.224;22.506;2023-03-14T07:53:20;97485.63;;;14.65;37.83
62402;BME280;48440;51.224;22.506;2023-03-14T07:55:46;97478.53;;;14.64;37.73
62402;BME280;48440;51.224;22.506;2023-03-14T07:58:12;97478.78;;;14.88;37.44
62402;BME280;48440;51.224;22.506;2023-03-14T08:00:38;97469.69;;;15.22;36.95
62402;BME280;48440;51.224;22.506;2023-03-14T08:03:04;97472.31;;;15.40;36.96
62402;BME280;48440;51.224;22.506;2023-03-14T08:05:29;97476.94;;;15.48;36.89
62402;BME280;48440;51.224;22.506;2023-03-14T08:07:55;97475.00;;;15.48;36.88
62402;BME280;48440;51.224;22.506;2023-03-14T08:10:21;97479.06;;;15.42;37.14
62402;BME280;48440;51.224;22.506;2023-03-14T08:12:50;97462.97;;;15.41;37.95
62402;BME280;48440;51.224;22.506;2023-03-14T08:15:16;97462.91;;;15.28;37.96
62402;BME280;48440;51.224;22.506;2023-03-14T08:17:41;97453.00;;;15.45;38.13
62402;BME280;48440;51.224;22.506;2023-03-14T08:20:08;97453.19;;;15.40;38.04
62402;BME280;48440;51.224;22.506;2023-03-14T08:22:36;97454.59;;;15.16;38.09
62402;BME280;48440;51.224;22.506;2023-03-14T08:25:01;97458.19;;;14.53;39.20
62402;BME280;48440;51.224;22.506;2023-03-14T08:27:27;97450.84;;;13.93;40.76
62402;BME280;48440;51.224;22.506;2023-03-14T08:29:52;97437.97;;;13.42;42.01
62402;BME280;48440;51.224;22.506;2023-03-14T08:32:19;97440.69;;;13.42;42.29
62402;BME280;48440;51.224;22.506;2023-03-14T08:34:45;97426.38;;;13.28;42.07
62402;BME280;48440;51.224;22.506;2023-03-14T08:37:11;97425.09;;;13.16;42.27
62402;BME280;48440;51.224;22.506;2023-03-14T08:39:37;97434.97;;;13.12;43.06
62402;BME280;48440;51.224;22.506;2023-03-14T08:42:03;97434.13;;;13.03;43.14
62402;BME280;48440;51.224;22.506;2023-03-14T08:44:28;97427.19;;;13.28;43.02
62402;BME280;48440;51.224;22.506;2023-03-14T08:46:54;97435.13;;;13.07;43.15
62402;BME280;48440;51.224;22.506;2023-03-14T08:49:20;97439.75;;;13.07;43.40
62402;BME280;48440;51.224;22.506;2023-03-14T08:51:45;97436.47;;;13.27;42.53
62402;BME280;48440;51.224;22.506;2023-03-14T08:54:11;97436.41;;;13.84;41.76
62402;BME280;48440;51.224;22.506;2023-03-14T08:56:36;97440.25;;;13.91;41.40
62402;BME280;48440;51.224;22.506;2023-03-14T08:59:03;97438.94;;;14.06;41.05
62402;BME280;48440;51.224;22.506;2023-03-14T09:01:29;97437.53;;;13.74;42.06
62402;BME280;48440;51.224;22.506;2023-03-14T09:03:54;97445.34;;;13.58;42.22
62402;BME280;48440;51.224;22.506;2023-03-14T09:06:20;97438.66;;;13.90;42.06
62402;BME280;48440;51.224;22.506;2023-03-14T09:08:45;97435.56;;;14.35;41.07
62402;BME280;48440;51.224;22.506;2023-03-14T09:11:11;97428.66;;;14.93;39.66
62402;BME280;48440;51.224;22.506;2023-03-14T09:13:37;97441.44;;;15.69;39.04
62402;BME280;48440;51.224;22.506;2023-03-14T09:16:02;97449.44;;;16.15;37.91
62402;BME280;48440;51.224;22.506;2023-03-14T09:18:28;97442.84;;;16.49;36.98
62402;BME280;48440;51.224;22.506;2023-03-14T09:20:55;97432.00;;;16.74;36.55
62402;BME280;48440;51.224;22.506;2023-03-14T09:23:21;97437.63;;;16.56;36.33
62402;BME280;48440;51.224;22.506;2023-03-14T09:25:46;97426.94;;;16.63;35.93
62402;BME280;48440;51.224;22.506;2023-03-14T09:28:12;97420.34;;;16.77;35.76
62402;BME280;48440;51.224;22.506;2023-03-14T09:30:38;97425.16;;;16.80;35.80
62402;BME280;48440;51.224;22.506;2023-03-14T09:33:04;97407.25;;;16.82;36.13
62402;BME280;48440;51.224;22.506;2023-03-14T09:35:29;97407.69;;;16.96;35.75
62402;BME280;48440;51.224;22.506;2023-03-14T09:37:55;97411.59;;;16.83;35.70
62402;BME280;48440;51.224;22.506;2023-03-14T09:40:20;97418.34;;;17.10;35.28
62402;BME280;48440;51.224;22.506;2023-03-14T09:42:50;97419.69;;;17.04;35.94
62402;BME280;48440;51.224;22.506;2023-03-14T09:45:38;97426.88;;;17.21;35.44
62402;BME280;48440;51.224;22.506;2023-03-14T09:48:08;97409.88;;;17.03;34.65
62402;BME280;48440;51.224;22.506;2023-03-14T09:50:42;97417.88;;;17.20;35.71
62402;BME280;48440;51.224;22.506;2023-03-14T09:53:19;97396.88;;;17.12;35.80
62402;BME280;48440;51.224;22.506;2023-03-14T09:55:47;97405.53;;;17.26;35.45
62402;BME280;48440;51.224;22.506;2023-03-14T09:58:16;97403.63;;;17.15;34.87
62402;BME280;48440;51.224;22.506;2023-03-14T10:00:43;97404.63;;;17.10;35.91
62402;BME280;48440;51.224;22.506;2023-03-14T10:05:38;97399.59;;;17.00;35.95
62402;BME280;48440;51.224;22.506;2023-03-14T10:08:04;97390.81;;;17.07;36.30
62402;BME280;48440;51.224;22.506;2023-03-14T10:10:30;97397.41;;;17.18;36.54
62402;BME280;48440;51.224;22.506;2023-03-14T10:15:25;97402.25;;;17.09;35.99
62402;BME280;48440;51.224;22.506;2023-03-14T10:17:51;97405.66;;;17.06;36.30
62402;BME280;48440;51.224;22.506;2023-03-14T10:22:59;97406.91;;;17.33;36.58
62402;BME280;48440;51.224;22.506;2023-03-14T10:25:28;97396.16;;;16.91;36.64
62402;BME280;48440;51.224;22.506;2023-03-14T10:27:54;97399.13;;;16.98;36.84
62402;BME280;48440;51.224;22.506;2023-03-14T10:30:45;97402.34;;;16.88;37.40
62402;BME280;48440;51.224;22.506;2023-03-14T10:33:20;97403.72;;;16.82;36.98
62402;BME280;48440;51.224;22.506;2023-03-14T10:36:02;97394.44;;;16.74;37.07
62402;BME280;48440;51.224;22.506;2023-03-14T10:38:30;97391.81;;;16.78;37.33
62402;BME280;48440;51.224;22.506;2023-03-14T10:40:56;97371.41;;;16.87;37.89
62402;BME280;48440;51.224;22.506;2023-03-14T10:43:26;97384.06;;;16.92;37.57
62402;BME280;48440;51.224;22.506;2023-03-14T10:46:16;97378.47;;;17.01;36.77
62402;BME280;48440;51.224;22.506;2023-03-14T10:48:40;97362.03;;;17.01;37.10
62402;BME280;48440;51.224;22.506;2023-03-14T10:53:48;97367.53;;;16.76;37.87
62402;BME280;48440;51.224;22.506;2023-03-14T10:56:18;97366.28;;;16.41;38.50
62402;BME280;48440;51.224;22.506;2023-03-14T10:58:45;97367.34;;;16.15;38.64
62402;BME280;48440;51.224;22.506;2023-03-14T11:01:29;97363.13;;;16.06;39.00
62402;BME280;48440;51.224;22.506;2023-03-14T11:06:56;97362.97;;;15.69;40.18
62402;BME280;48440;51.224;22.506;2023-03-14T11:09:36;97355.41;;;15.87;39.44
62402;BME280;48440;51.224;22.506;2023-03-14T11:14:57;97366.97;;;15.72;40.49
62402;BME280;48440;51.224;22.506;2023-03-14T11:17:49;97356.91;;;15.34;40.48
62402;BME280;48440;51.224;22.506;2023-03-14T11:23:21;97368.91;;;15.71;41.02
62402;BME280;48440;51.224;22.506;2023-03-14T11:25:56;97357.56;;;15.81;39.67
62402;BME280;48440;51.224;22.506;2023-03-14T11:28:41;97361.91;;;15.82;40.42
62402;BME280;48440;51.224;22.506;2023-03-14T11:31:27;97354.03;;;15.81;40.57
62402;BME280;48440;51.224;22.506;2023-03-14T11:36:29;97349.56;;;15.76;40.29
62402;BME280;48440;51.224;22.506;2023-03-14T11:38:58;97328.28;;;15.82;40.53
62402;BME280;48440;51.224;22.506;2023-03-14T11:41:33;97325.88;;;15.80;41.05
62402;BME280;48440;51.224;22.506;2023-03-14T11:44:08;97339.00;;;15.87;40.23
62402;BME280;48440;51.224;22.506;2023-03-14T11:46:42;97341.38;;;15.88;40.39
62402;BME280;48440;51.224;22.506;2023-03-14T11:54:46;97342.75;;;15.61;40.78
62402;BME280;48440;51.224;22.506;2023-03-14T11:57:19;97335.41;;;15.33;40.79
62402;BME280;48440;51.224;22.506;2023-03-14T12:00:25;97330.78;;;15.04;41.86
62402;BME280;48440;51.224;22.506;2023-03-14T12:06:47;97340.81;;;14.91;42.93
62402;BME280;48440;51.224;22.506;2023-03-14T12:08:52;97336.47;;;14.90;42.67
62402;BME280;48440;51.224;22.506;2023-03-14T12:11:40;97337.56;;;14.98;43.65
62402;BME280;48440;51.224;22.506;2023-03-14T12:14:29;97334.78;;;15.06;44.78
62402;BME280;48440;51.224;22.506;2023-03-14T12:16:58;97338.31;;;15.07;43.32
62402;BME280;48440;51.224;22.506;2023-03-14T12:19:31;97345.72;;;15.06;43.55
62402;BME280;48440;51.224;22.506;2023-03-14T12:22:07;97338.44;;;15.10;43.29
62402;BME280;48440;51.224;22.506;2023-03-14T12:24:36;97334.25;;;15.13;43.24
62402;BME280;48440;51.224;22.506;2023-03-14T12:27:04;97332.84;;;15.07;43.62
62402;BME280;48440;51.224;22.506;2023-03-14T12:29:30;97331.38;;;15.09;44.07
62402;BME280;48440;51.224;22.506;2023-03-14T12:32:24;97329.91;;;15.12;43.75
62402;BME280;48440;51.224;22.506;2023-03-14T12:34:49;97328.78;;;15.13;43.39
62402;BME280;48440;51.224;22.506;2023-03-14T12:37:37;97326.19;;;15.16;42.39
62402;BME280;48440;51.224;22.506;2023-03-14T12:40:26;97324.44;;;15.12;43.41
62402;BME280;48440;51.224;22.506;2023-03-14T12:43:00;97328.38;;;15.02;43.00
62402;BME280;48440;51.224;22.506;2023-03-14T12:45:34;97327.28;;;14.94;43.31
62402;BME280;48440;51.224;22.506;2023-03-14T12:48:36;97324.75;;;14.89;43.50
62402;BME280;48440;51.224;22.506;2023-03-14T12:51:12;97329.09;;;14.90;44.27
62402;BME280;48440;51.224;22.506;2023-03-14T12:59:28;97317.88;;;14.83;44.99
62402;BME280;48440;51.224;22.506;2023-03-14T13:02:00;97321.28;;;14.80;44.65
62402;BME280;48440;51.224;22.506;2023-03-14T13:04:28;97318.41;;;14.77;44.27
62402;BME280;48440;51.224;22.506;2023-03-14T13:06:57;97318.91;;;14.70;44.29
62402;BME280;48440;51.224;22.506;2023-03-14T13:11:58;97326.41;;;14.52;45.77
62402;BME280;48440;51.224;22.506;2023-03-14T13:14:28;97318.22;;;14.44;46.52
62402;BME280;48440;51.224;22.506;2023-03-14T13:16:53;97329.47;;;14.42;46.62
62402;BME280;48440;51.224;22.506;2023-03-14T13:19:23;97328.03;;;14.45;46.69
62402;BME280;48440;51.224;22.506;2023-03-14T13:21:50;97331.56;;;14.45;46.19
62402;BME280;48440;51.224;22.506;2023-03-14T13:24:25;97334.13;;;14.33;46.00
62402;BME280;48440;51.224;22.506;2023-03-14T13:26:55;97332.72;;;14.27;45.56
62402;BME280;48440;51.224;22.506;2023-03-14T13:29:28;97338.19;;;14.18;45.65
62402;BME280;48440;51.224;22.506;2023-03-14T13:31:59;97338.50;;;14.17;45.95
62402;BME280;48440;51.224;22.506;2023-03-14T13:34:26;97343.66;;;14.10;46.24
62402;BME280;48440;51.224;22.506;2023-03-14T13:36:53;97328.25;;;14.14;46.36
62402;BME280;48440;51.224;22.506;2023-03-14T13:39:25;97339.16;;;14.14;46.45
62402;BME280;48440;51.224;22.506;2023-03-14T13:41:59;97326.50;;;14.09;46.65